Time,TemperatureF,DewpointF,PressureIn,WindDirection,WindDirectionDegrees,WindSpeedMPH,WindSpeedGustMPH,Humidity,HourlyPrecipIn,Conditions,Clouds,dailyrainin,SoftwareType,DateUTC
2013-03-29 00:03:00,43.0,20.0,-100.00,SW,220,0.0,1.0,39,-99.99,,,-99.99,,2013-03-29 04:03:00,
2013-03-29 00:13:00,42.0,20.0,-100.00,SSW,205,2.0,3.0,42,-99.99,,,-99.99,,2013-03-29 04:13:00,
2013-03-29 00:23:00,41.0,20.0,-100.00,SW,235,1.0,2.0,43,-99.99,,,-99.99,,2013-03-29 04:23:00,
2013-03-29 00:33:00,41.0,20.0,-100.00,NNW,330,2.0,4.0,43,-99.99,,,-99.99,,2013-03-29 04:33:00,
2013-03-29 00:43:00,42.0,21.0,-100.00,NW,310,2.0,5.0,43,-99.99,,,-99.99,,2013-03-29 04:43:00,
2013-03-29 00:52:00,40.0,21.0,-100.00,SW,230,0.0,3.0,46,-99.99,,,-99.99,,2013-03-29 04:52:00,
2013-03-29 01:03:00,39.0,21.0,-100.00,NNE,30,1.0,4.0,48,-99.99,,,-99.99,,2013-03-29 05:03:00,
2013-03-29 01:13:00,37.0,20.0,-100.00,SE,140,0.0,2.0,50,-99.99,,,-99.99,,2013-03-29 05:13:00,
2013-03-29 01:23:00,36.0,22.0,-100.00,South,185,1.0,3.0,56,-99.99,,,-99.99,,2013-03-29 05:23:00,
2013-03-29 01:33:00,36.0,22.0,-100.00,West,260,1.0,2.0,56,-99.99,,,-99.99,,2013-03-29 05:33:00,
2013-03-29 01:43:00,37.0,22.0,-100.00,WNW,285,2.0,3.0,56,-99.99,,,-99.99,,2013-03-29 05:43:00,
2013-03-29 01:52:00,35.0,22.0,-100.00,WNW,300,2.0,5.0,59,-99.99,,,-99.99,,2013-03-29 05:52:00,
2013-03-29 02:03:00,35.0,22.0,-100.00,NNE,15,1.0,4.0,61,-99.99,,,-99.99,,2013-03-29 06:03:00,
2013-03-29 02:13:00,35.0,22.0,-100.00,NNE,15,0.0,2.0,61,-99.99,,,-99.99,,2013-03-29 06:13:00,
2013-03-29 02:23:00,34.0,23.0,-100.00,ESE,110,1.0,2.0,63,-99.99,,,-99.99,,2013-03-29 06:23:00,
2013-03-29 02:32:00,33.0,23.0,-100.00,ESE,120,0.0,1.0,66,-99.99,,,-99.99,,2013-03-29 06:32:00,
2013-03-29 02:42:00,33.0,23.0,-100.00,SW,220,0.0,0.0,68,-99.99,,,-99.99,,2013-03-29 06:42:00,
2013-03-29 02:52:00,33.0,24.0,-100.00,NNE,15,0.0,2.0,68,-99.99,,,-99.99,,2013-03-29 06:52:00,
2013-03-29 03:03:00,33.0,24.0,-100.00,NW,325,1.0,2.0,68,-99.99,,,-99.99,,2013-03-29 07:03:00,
2013-03-29 03:12:00,33.0,23.0,-100.00,SW,235,0.0,1.0,68,-99.99,,,-99.99,,2013-03-29 07:12:00,
2013-03-29 03:22:00,32.0,23.0,-100.00,NW,315,0.0,0.0,70,-99.99,,,-99.99,,2013-03-29 07:22:00,
2013-03-29 03:32:00,32.0,23.0,-100.00,NE,40,1.0,3.0,71,-99.99,,,-99.99,,2013-03-29 07:32:00,
2013-03-29 03:42:00,32.0,24.0,-100.00,NNW,345,0.0,1.0,72,-99.99,,,-99.99,,2013-03-29 07:42:00,
2013-03-29 03:52:00,31.0,24.0,-100.00,SSW,195,0.0,0.0,74,-99.99,,,-99.99,,2013-03-29 07:52:00,
2013-03-29 04:02:00,31.0,24.0,-100.00,East,90,1.0,1.0,75,-99.99,,,-99.99,,2013-03-29 08:02:00,
2013-03-29 04:12:00,30.0,24.0,-100.00,North,0,1.0,1.0,76,-99.99,,,-99.99,,2013-03-29 08:12:00,
2013-03-29 04:22:00,30.0,24.0,-100.00,SSW,210,1.0,1.0,79,-99.99,,,-99.99,,2013-03-29 08:22:00,
2013-03-29 04:32:00,30.0,25.0,-100.00,SSW,200,2.0,3.0,81,-99.99,,,-99.99,,2013-03-29 08:32:00,
2013-03-29 04:42:00,29.0,24.0,-100.00,South,185,0.0,3.0,81,-99.99,,,-99.99,,2013-03-29 08:42:00,
2013-03-29 04:52:00,29.0,24.0,-100.00,North,350,0.0,1.0,82,-99.99,,,-99.99,,2013-03-29 08:52:00,
2013-03-29 05:02:00,29.0,25.0,-100.00,ESE,105,0.0,3.0,82,-99.99,,,-99.99,,2013-03-29 09:02:00,
2013-03-29 05:13:00,29.0,25.0,-100.00,ESE,120,1.0,1.0,85,-99.99,,,-99.99,,2013-03-29 09:13:00,
2013-03-29 05:22:00,29.0,26.0,-100.00,SW,220,0.0,1.0,85,-99.99,,,-99.99,,2013-03-29 09:22:00,
2013-03-29 05:33:00,29.0,25.0,-100.00,ESE,110,0.0,1.0,85,-99.99,,,-99.99,,2013-03-29 09:33:00,
2013-03-29 05:43:00,29.0,25.0,-100.00,East,85,1.0,1.0,85,-99.99,,,-99.99,,2013-03-29 09:43:00,
2013-03-29 05:52:00,29.0,25.0,-100.00,East,80,0.0,1.0,85,-99.99,,,-99.99,,2013-03-29 09:52:00,
2013-03-29 06:03:00,29.0,25.0,-100.00,WSW,240,0.0,1.0,86,-99.99,,,-99.99,,2013-03-29 10:03:00,
2013-03-29 06:12:00,29.0,25.0,-100.00,SW,230,0.0,0.0,87,-99.99,,,-99.99,,2013-03-29 10:12:00,
2013-03-29 06:23:00,28.0,25.0,-100.00,SW,235,0.0,0.0,86,-99.99,,,-99.99,,2013-03-29 10:23:00,
2013-03-29 06:33:00,28.0,25.0,-100.00,NNW,345,0.0,0.0,87,-99.99,,,-99.99,,2013-03-29 10:33:00,
2013-03-29 06:42:00,28.0,25.0,-100.00,NE,35,0.0,1.0,87,-99.99,,,-99.99,,2013-03-29 10:42:00,
2013-03-29 06:53:00,28.0,25.0,-100.00,SW,235,0.0,1.0,87,-99.99,,,-99.99,,2013-03-29 10:53:00,
2013-03-29 07:04:00,28.0,25.0,-100.00,East,80,1.0,1.0,87,-99.99,,,-99.99,,2013-03-29 11:04:00,
2013-03-29 07:12:00,28.0,25.0,-100.00,NE,40,0.0,1.0,87,-99.99,,,-99.99,,2013-03-29 11:12:00,
2013-03-29 07:23:00,28.0,25.0,-100.00,WNW,295,2.0,2.0,89,-99.99,,,-99.99,,2013-03-29 11:23:00,
2013-03-29 07:33:00,28.0,25.0,-100.00,SSW,205,1.0,4.0,89,-99.99,,,-99.99,,2013-03-29 11:33:00,
2013-03-29 07:42:00,28.0,25.0,-100.00,East,90,1.0,3.0,89,-99.99,,,-99.99,,2013-03-29 11:42:00,
2013-03-29 07:52:00,28.0,25.0,-100.00,South,175,1.0,5.0,89,-99.99,,,-99.99,,2013-03-29 11:52:00,
2013-03-29 08:03:00,28.0,25.0,-100.00,SSW,205,1.0,2.0,90,-99.99,,,-99.99,,2013-03-29 12:03:00,
2013-03-29 08:13:00,29.0,26.0,-100.00,West,260,1.0,1.0,90,-99.99,,,-99.99,,2013-03-29 12:13:00,
2013-03-29 08:22:00,30.0,27.0,-100.00,East,100,1.0,2.0,89,-99.99,,,-99.99,,2013-03-29 12:22:00,
2013-03-29 08:32:00,31.0,27.0,-100.00,ENE,70,1.0,3.0,86,-99.99,,,-99.99,,2013-03-29 12:32:00,
2013-03-29 08:42:00,32.0,28.0,-100.00,East,95,0.0,2.0,84,-99.99,,,-99.99,,2013-03-29 12:42:00,
2013-03-29 08:52:00,35.0,29.0,-100.00,North,355,0.0,0.0,79,-99.99,,,-99.99,,2013-03-29 12:52:00,
2013-03-29 09:03:00,37.0,30.0,-100.00,West,280,0.0,1.0,75,-99.99,,,-99.99,,2013-03-29 13:03:00,
2013-03-29 09:13:00,38.0,29.0,-100.00,East,95,2.0,3.0,72,-99.99,,,-99.99,,2013-03-29 13:13:00,
2013-03-29 09:23:00,39.0,30.0,-100.00,North,10,1.0,4.0,70,-99.99,,,-99.99,,2013-03-29 13:23:00,
2013-03-29 09:33:00,39.0,30.0,-100.00,ENE,65,2.0,4.0,71,-99.99,,,-99.99,,2013-03-29 13:33:00,
2013-03-29 09:43:00,41.0,31.0,-100.00,East,100,1.0,3.0,68,-99.99,,,-99.99,,2013-03-29 13:43:00,
2013-03-29 09:52:00,41.0,31.0,-100.00,East,100,1.0,3.0,68,-99.99,,,-99.99,,2013-03-29 13:52:00,
2013-03-29 10:03:00,45.0,31.0,-100.00,ESE,110,0.0,2.0,57,-99.99,,,-99.99,,2013-03-29 14:03:00,
2013-03-29 10:12:00,46.0,30.0,-100.00,ENE,75,1.0,3.0,55,-99.99,,,-99.99,,2013-03-29 14:12:00,
2013-03-29 10:22:00,47.0,30.0,-100.00,East,100,3.0,4.0,52,-99.99,,,-99.99,,2013-03-29 14:22:00,
2013-03-29 10:33:00,49.0,32.0,-100.00,ESE,120,1.0,4.0,51,-99.99,,,-99.99,,2013-03-29 14:33:00,
2013-03-29 10:42:00,53.0,32.0,-100.00,South,180,2.0,8.0,45,-99.99,,,-99.99,,2013-03-29 14:42:00,
2013-03-29 10:52:00,53.0,30.0,-100.00,SSW,195,7.0,11.0,41,-99.99,,,-99.99,,2013-03-29 14:52:00,
2013-03-29 11:02:00,54.0,30.0,-100.00,SE,145,1.0,10.0,40,-99.99,,,-99.99,,2013-03-29 15:02:00,
2013-03-29 11:12:00,54.0,29.0,-100.00,SSW,210,6.0,10.0,38,-99.99,,,-99.99,,2013-03-29 15:12:00,
2013-03-29 11:22:00,55.0,30.0,-100.00,SW,225,5.0,12.0,38,-99.99,,,-99.99,,2013-03-29 15:22:00,
2013-03-29 11:33:00,55.0,30.0,-100.00,SW,235,4.0,11.0,38,-99.99,,,-99.99,,2013-03-29 15:33:00,
2013-03-29 11:43:00,55.0,29.0,-100.00,SSW,210,6.0,9.0,37,-99.99,,,-99.99,,2013-03-29 15:43:00,
2013-03-29 11:53:00,56.0,30.0,-100.00,South,185,6.0,10.0,37,-99.99,,,-99.99,,2013-03-29 15:53:00,
2013-03-29 12:03:00,56.0,29.0,-100.00,SSW,200,6.0,14.0,36,-99.99,,,-99.99,,2013-03-29 16:03:00,
2013-03-29 12:13:00,57.0,29.0,-100.00,SE,145,5.0,14.0,35,-99.99,,,-99.99,,2013-03-29 16:13:00,
2013-03-29 12:23:00,57.0,29.0,-100.00,SSW,205,7.0,14.0,34,-99.99,,,-99.99,,2013-03-29 16:23:00,
2013-03-29 12:33:00,59.0,30.0,-100.00,South,185,4.0,10.0,33,-99.99,,,-99.99,,2013-03-29 16:33:00,
2013-03-29 12:43:00,59.0,30.0,-100.00,SW,215,4.0,9.0,33,-99.99,,,-99.99,,2013-03-29 16:43:00,
2013-03-29 12:52:00,59.0,30.0,-100.00,SSW,210,4.0,13.0,33,-99.99,,,-99.99,,2013-03-29 16:52:00,
2013-03-29 13:03:00,59.0,30.0,-100.00,WSW,240,6.0,11.0,33,-99.99,,,-99.99,,2013-03-29 17:03:00,
2013-03-29 13:12:00,60.0,30.0,-100.00,SW,230,6.0,11.0,32,-99.99,,,-99.99,,2013-03-29 17:12:00,
2013-03-29 13:23:00,60.0,30.0,-100.00,South,180,7.0,10.0,32,-99.99,,,-99.99,,2013-03-29 17:23:00,
2013-03-29 13:33:00,60.0,30.0,-100.00,WSW,250,5.0,10.0,31,-99.99,,,-99.99,,2013-03-29 17:33:00,
2013-03-29 13:43:00,60.0,30.0,-100.00,SE,135,6.0,12.0,31,-99.99,,,-99.99,,2013-03-29 17:43:00,
2013-03-29 13:52:00,61.0,30.0,-100.00,SW,215,4.0,11.0,31,-99.99,,,-99.99,,2013-03-29 17:52:00,
2013-03-29 14:02:00,61.0,30.0,-100.00,SSE,155,5.0,14.0,31,-99.99,,,-99.99,,2013-03-29 18:02:00,
2013-03-29 14:12:00,62.0,31.0,-100.00,West,275,8.0,11.0,31,-99.99,,,-99.99,,2013-03-29 18:12:00,
2013-03-29 14:23:00,62.0,31.0,-100.00,SW,220,9.0,13.0,31,-99.99,,,-99.99,,2013-03-29 18:23:00,
2013-03-29 14:33:00,61.0,30.0,-100.00,SSW,200,9.0,14.0,31,-99.99,,,-99.99,,2013-03-29 18:33:00,
2013-03-29 14:42:00,62.0,31.0,-100.00,SSW,200,6.0,12.0,31,-99.99,,,-99.99,,2013-03-29 18:42:00,
2013-03-29 14:52:00,63.0,32.0,-100.00,South,175,6.0,12.0,31,-99.99,,,-99.99,,2013-03-29 18:52:00,
2013-03-29 15:03:00,62.0,31.0,-100.00,South,175,6.0,16.0,30,-99.99,,,-99.99,,2013-03-29 19:03:00,
2013-03-29 15:12:00,63.0,32.0,-100.00,SW,225,5.0,13.0,30,-99.99,,,-99.99,,2013-03-29 19:12:00,
2013-03-29 15:23:00,64.0,32.0,-100.00,SSW,200,11.0,18.0,30,-99.99,,,-99.99,,2013-03-29 19:23:00,
2013-03-29 15:33:00,64.0,32.0,-100.00,SE,145,5.0,15.0,30,-99.99,,,-99.99,,2013-03-29 19:33:00,
2013-03-29 15:43:00,64.0,32.0,-100.00,South,190,8.0,14.0,30,-99.99,,,-99.99,,2013-03-29 19:43:00,
2013-03-29 15:52:00,63.0,32.0,-100.00,SSW,200,5.0,17.0,31,-99.99,,,-99.99,,2013-03-29 19:52:00,
2013-03-29 16:03:00,64.0,32.0,-100.00,SSW,200,5.0,13.0,30,-99.99,,,-99.99,,2013-03-29 20:03:00,
2013-03-29 16:12:00,62.0,31.0,-100.00,SW,215,9.0,14.0,31,-99.99,,,-99.99,,2013-03-29 20:12:00,
2013-03-29 16:23:00,62.0,31.0,-100.00,SW,235,7.0,15.0,31,-99.99,,,-99.99,,2013-03-29 20:23:00,
2013-03-29 16:33:00,61.0,30.0,-100.00,South,190,6.0,20.0,31,-99.99,,,-99.99,,2013-03-29 20:33:00,
2013-03-29 16:42:00,61.0,30.0,-100.00,SW,225,9.0,17.0,31,-99.99,,,-99.99,,2013-03-29 20:42:00,
2013-03-29 16:52:00,61.0,30.0,-100.00,SW,225,9.0,17.0,31,-99.99,,,-99.99,,2013-03-29 20:52:00,
2013-03-29 17:02:00,61.0,31.0,-100.00,SSW,195,8.0,19.0,32,-99.99,,,-99.99,,2013-03-29 21:02:00,
2013-03-29 17:12:00,60.0,30.0,-100.00,SSW,200,10.0,18.0,32,-99.99,,,-99.99,,2013-03-29 21:12:00,
2013-03-29 17:22:00,60.0,31.0,-100.00,SW,215,8.0,14.0,33,-99.99,,,-99.99,,2013-03-29 21:22:00,
2013-03-29 17:33:00,59.0,30.0,-100.00,SW,225,9.0,16.0,33,-99.99,,,-99.99,,2013-03-29 21:33:00,
2013-03-29 17:43:00,59.0,31.0,-100.00,SW,215,9.0,17.0,34,-99.99,,,-99.99,,2013-03-29 21:43:00,
2013-03-29 17:53:00,59.0,31.0,-100.00,SW,215,9.0,17.0,34,-99.99,,,-99.99,,2013-03-29 21:53:00,
2013-03-29 18:03:00,60.0,32.0,-100.00,West,275,8.0,19.0,34,-99.99,,,-99.99,,2013-03-29 22:03:00,
2013-03-29 18:13:00,61.0,32.0,-100.00,WNW,300,6.0,13.0,34,-99.99,,,-99.99,,2013-03-29 22:13:00,
2013-03-29 18:23:00,60.0,32.0,-100.00,NW,320,8.0,16.0,34,-99.99,,,-99.99,,2013-03-29 22:23:00,
2013-03-29 18:33:00,60.0,32.0,-100.00,WNW,295,9.0,14.0,35,-99.99,,,-99.99,,2013-03-29 22:33:00,
2013-03-29 18:42:00,59.0,32.0,-100.00,WNW,295,6.0,11.0,36,-99.99,,,-99.99,,2013-03-29 22:42:00,
2013-03-29 18:53:00,58.0,32.0,-100.00,WNW,300,5.0,11.0,37,-99.99,,,-99.99,,2013-03-29 22:53:00,
2013-03-29 19:03:00,58.0,32.0,-100.00,WNW,290,6.0,11.0,38,-99.99,,,-99.99,,2013-03-29 23:03:00,
2013-03-29 19:12:00,57.0,33.0,-100.00,WNW,290,4.0,10.0,40,-99.99,,,-99.99,,2013-03-29 23:12:00,
2013-03-29 19:22:00,56.0,34.0,-100.00,WNW,300,8.0,11.0,42,-99.99,,,-99.99,,2013-03-29 23:22:00,
2013-03-29 19:32:00,56.0,34.0,-100.00,WNW,290,6.0,13.0,44,-99.99,,,-99.99,,2013-03-29 23:32:00,
2013-03-29 19:42:00,55.0,35.0,-100.00,NW,310,7.0,11.0,46,-99.99,,,-99.99,,2013-03-29 23:42:00,
2013-03-29 19:52:00,55.0,35.0,-100.00,WNW,300,7.0,13.0,48,-99.99,,,-99.99,,2013-03-29 23:52:00,
2013-03-29 20:03:00,54.0,36.0,-100.00,WNW,290,5.0,10.0,50,-99.99,,,-99.99,,2013-03-30 00:03:00,
2013-03-29 20:12:00,54.0,36.0,-100.00,WNW,295,6.0,11.0,51,-99.99,,,-99.99,,2013-03-30 00:12:00,
2013-03-29 20:22:00,54.0,37.0,-100.00,WNW,295,4.0,10.0,52,-99.99,,,-99.99,,2013-03-30 00:22:00,
2013-03-29 20:33:00,53.0,37.0,-100.00,WNW,300,6.0,11.0,53,-99.99,,,-99.99,,2013-03-30 00:33:00,
2013-03-29 20:43:00,53.0,37.0,-100.00,WNW,300,4.0,9.0,55,-99.99,,,-99.99,,2013-03-30 00:43:00,
2013-03-29 20:52:00,53.0,37.0,-100.00,WNW,300,4.0,9.0,55,-99.99,,,-99.99,,2013-03-30 00:52:00,
2013-03-29 21:03:00,52.0,38.0,-100.00,WNW,290,7.0,10.0,57,-99.99,,,-99.99,,2013-03-30 01:03:00,
2013-03-29 21:13:00,52.0,38.0,-100.00,NW,315,7.0,11.0,58,-99.99,,,-99.99,,2013-03-30 01:13:00,
2013-03-29 21:23:00,52.0,38.0,-100.00,WNW,285,4.0,11.0,59,-99.99,,,-99.99,,2013-03-30 01:23:00,
2013-03-29 21:33:00,52.0,38.0,-100.00,WNW,295,4.0,7.0,59,-99.99,,,-99.99,,2013-03-30 01:33:00,
2013-03-29 21:43:00,51.0,38.0,-100.00,WNW,290,1.0,7.0,60,-99.99,,,-99.99,,2013-03-30 01:43:00,
2013-03-29 21:52:00,51.0,38.0,-100.00,WNW,300,3.0,4.0,61,-99.99,,,-99.99,,2013-03-30 01:52:00,
2013-03-29 22:03:00,51.0,38.0,-100.00,WNW,285,4.0,6.0,61,-99.99,,,-99.99,,2013-03-30 02:03:00,
2013-03-29 22:13:00,51.0,39.0,-100.00,NW,310,3.0,7.0,63,-99.99,,,-99.99,,2013-03-30 02:13:00,
2013-03-29 22:22:00,51.0,39.0,-100.00,WNW,285,4.0,6.0,64,-99.99,,,-99.99,,2013-03-30 02:22:00,
2013-03-29 22:33:00,51.0,39.0,-100.00,West,265,1.0,6.0,64,-99.99,,,-99.99,,2013-03-30 02:33:00,
2013-03-29 22:43:00,50.0,39.0,-100.00,WNW,300,4.0,6.0,65,-99.99,,,-99.99,,2013-03-30 02:43:00,
2013-03-29 22:52:00,50.0,39.0,-100.00,WNW,295,4.0,6.0,65,-99.99,,,-99.99,,2013-03-30 02:52:00,
2013-03-29 23:03:00,50.0,39.0,-100.00,WNW,295,2.0,4.0,65,-99.99,,,-99.99,,2013-03-30 03:03:00,
2013-03-29 23:12:00,50.0,39.0,-100.00,WNW,300,1.0,8.0,66,-99.99,,,-99.99,,2013-03-30 03:12:00,
2013-03-29 23:22:00,50.0,39.0,-100.00,SW,215,0.0,5.0,67,-99.99,,,-99.99,,2013-03-30 03:22:00,
2013-03-29 23:33:00,50.0,40.0,-100.00,WSW,255,1.0,4.0,68,-99.99,,,-99.99,,2013-03-30 03:33:00,
2013-03-29 23:43:00,49.0,39.0,-100.00,WNW,300,4.0,5.0,68,-99.99,,,-99.99,,2013-03-30 03:43:00,
2013-03-29 23:53:00,49.0,39.0,-100.00,WNW,290,1.0,6.0,68,-99.99,,,-99.99,,2013-03-30 03:53:00,